sensor_id;sensor_type;location;lat;lon;timestamp;P1;durP1;ratioP1;P2;durP2;ratioP2
56271;SDS011;42177;48.914;18.160;2022-08-01T00:02:49;47.4;;;13.1;;
56271;SDS011;42177;48.914;18.160;2022-08-01T00:07:49;12;;;9.5;;
56271;SDS011;42177;48.914;18.160;2022-08-01T00:12:49;12;;;9.5;;
56271;SDS011;42177;48.914;18.160;2022-08-01T00:17:49;9.7;;;8.1;;
56271;SDS011;42177;48.914;18.160;2022-08-01T00:22:49;9.7;;;8.1;;
56271;SDS011;42177;48.914;18.160;2022-08-01T00:27:49;11.2;;;9.4;;
56271;SDS011;42177;48.914;18.160;2022-08-01T00:32:49;11.2;;;9.4;;
56271;SDS011;42177;48.914;18.160;2022-08-01T00:37:49;10.5;;;9;;
56271;SDS011;42177;48.914;18.160;2022-08-01T00:42:49;10.5;;;9;;
56271;SDS011;42177;48.914;18.160;2022-08-01T00:47:49;12.5;;;10.1;;
56271;SDS011;42177;48.914;18.160;2022-08-01T00:52:49;12.5;;;10.1;;
56271;SDS011;42177;48.914;18.160;2022-08-01T00:57:49;14.3;;;12.5;;
56271;SDS011;42177;48.914;18.160;2022-08-01T01:02:49;14.3;;;12.5;;
56271;SDS011;42177;48.914;18.160;2022-08-01T01:07:50;15.8;;;12.9;;
56271;SDS011;42177;48.914;18.160;2022-08-01T01:12:50;15.8;;;12.9;;
56271;SDS011;42177;48.914;18.160;2022-08-01T01:17:51;15.8;;;12.3;;
56271;SDS011;42177;48.914;18.160;2022-08-01T01:22:53;15.8;;;12.3;;
56271;SDS011;42177;48.914;18.160;2022-08-01T01:27:51;9;;;8.1;;
56271;SDS011;42177;48.914;18.160;2022-08-01T01:32:49;9;;;8.1;;
56271;SDS011;42177;48.914;18.160;2022-08-01T01:37:50;9.4;;;8.3;;
56271;SDS011;42177;48.914;18.160;2022-08-01T01:42:49;9.4;;;8.3;;
56271;SDS011;42177;48.914;18.160;2022-08-01T01:47:49;10.8;;;8.8;;
56271;SDS011;42177;48.914;18.160;2022-08-01T01:52:49;10.8;;;8.8;;
56271;SDS011;42177;48.914;18.160;2022-08-01T01:57:49;8.4;;;6.6;;
56271;SDS011;42177;48.914;18.160;2022-08-01T02:02:49;8.4;;;6.6;;
56271;SDS011;42177;48.914;18.160;2022-08-01T02:07:49;7.8;;;6.2;;
56271;SDS011;42177;48.914;18.160;2022-08-01T02:12:49;7.8;;;6.2;;
56271;SDS011;42177;48.914;18.160;2022-08-01T02:17:49;9.6;;;6.9;;
56271;SDS011;42177;48.914;18.160;2022-08-01T02:22:50;9.6;;;6.9;;
56271;SDS011;42177;48.914;18.160;2022-08-01T02:27:50;11.3;;;9;;
56271;SDS011;42177;48.914;18.160;2022-08-01T02:32:51;11.3;;;9;;
56271;SDS011;42177;48.914;18.160;2022-08-01T02:37:49;13.3;;;9.3;;
56271;SDS011;42177;48.914;18.160;2022-08-01T02:42:50;13.3;;;9.3;;
56271;SDS011;42177;48.914;18.160;2022-08-01T02:47:49;16.2;;;9.6;;
56271;SDS011;42177;48.914;18.160;2022-08-01T02:52:50;16.2;;;9.6;;
56271;SDS011;42177;48.914;18.160;2022-08-01T02:57:49;12.1;;;10.8;;
56271;SDS011;42177;48.914;18.160;2022-08-01T03:02:49;12.1;;;10.8;;
56271;SDS011;42177;48.914;18.160;2022-08-01T03:07:49;11.9;;;10.7;;
56271;SDS011;42177;48.914;18.160;2022-08-01T03:12:49;11.9;;;10.7;;
56271;SDS011;42177;48.914;18.160;2022-08-01T03:17:49;11.6;;;10.4;;
56271;SDS011;42177;48.914;18.160;2022-08-01T03:22:49;11.6;;;10.4;;
56271;SDS011;42177;48.914;18.160;2022-08-01T03:27:52;9.8;;;8.8;;
56271;SDS011;42177;48.914;18.160;2022-08-01T03:32:49;9.8;;;8.8;;
56271;SDS011;42177;48.914;18.160;2022-08-01T03:37:50;10.1;;;9;;
56271;SDS011;42177;48.914;18.160;2022-08-01T03:42:50;10.1;;;9;;
56271;SDS011;42177;48.914;18.160;2022-08-01T03:47:51;12.4;;;9;;
56271;SDS011;42177;48.914;18.160;2022-08-01T03:52:49;12.4;;;9;;
56271;SDS011;42177;48.914;18.160;2022-08-01T03:57:49;9.2;;;7.3;;
56271;SDS011;42177;48.914;18.160;2022-08-01T04:02:49;9.2;;;7.3;;
56271;SDS011;42177;48.914;18.160;2022-08-01T04:07:50;7.8;;;6.9;;
56271;SDS011;42177;48.914;18.160;2022-08-01T04:12:49;7.8;;;6.9;;
56271;SDS011;42177;48.914;18.160;2022-08-01T04:17:49;8.4;;;6.6;;
56271;SDS011;42177;48.914;18.160;2022-08-01T04:22:49;8.4;;;6.6;;
56271;SDS011;42177;48.914;18.160;2022-08-01T04:27:50;7.5;;;6.6;;
56271;SDS011;42177;48.914;18.160;2022-08-01T04:32:49;7.5;;;6.6;;
56271;SDS011;42177;48.914;18.160;2022-08-01T04:37:49;7.1;;;6;;
56271;SDS011;42177;48.914;18.160;2022-08-01T04:42:49;7.1;;;6;;
56271;SDS011;42177;48.914;18.160;2022-08-01T04:47:49;6.3;;;5.4;;
56271;SDS011;42177;48.914;18.160;2022-08-01T04:52:49;6.3;;;5.4;;
56271;SDS011;42177;48.914;18.160;2022-08-01T04:57:49;7.3;;;5.4;;
56271;SDS011;42177;48.914;18.160;2022-08-01T05:02:49;7.3;;;5.4;;
56271;SDS011;42177;48.914;18.160;2022-08-01T05:07:49;6.1;;;5.3;;
56271;SDS011;42177;48.914;18.160;2022-08-01T05:12:49;6.1;;;5.3;;
56271;SDS011;42177;48.914;18.160;2022-08-01T05:17:49;6.8;;;5.7;;
56271;SDS011;42177;48.914;18.160;2022-08-01T05:22:49;6.8;;;5.7;;
56271;SDS011;42177;48.914;18.160;2022-08-01T05:27:49;7.1;;;6.3;;
56271;SDS011;42177;48.914;18.160;2022-08-01T05:32:49;7.1;;;6.3;;
56271;SDS011;42177;48.914;18.160;2022-08-01T05:37:49;7.5;;;5.8;;
56271;SDS011;42177;48.914;18.160;2022-08-01T05:42:49;7.5;;;5.8;;
56271;SDS011;42177;48.914;18.160;2022-08-01T05:47:49;7.6;;;5.2;;
56271;SDS011;42177;48.914;18.160;2022-08-01T05:52:49;7.6;;;5.2;;
56271;SDS011;42177;48.914;18.160;2022-08-01T05:57:49;6.3;;;5.4;;
56271;SDS011;42177;48.914;18.160;2022-08-01T06:02:49;6.3;;;5.4;;
56271;SDS011;42177;48.914;18.160;2022-08-01T06:07:49;8.5;;;5.8;;
56271;SDS011;42177;48.914;18.160;2022-08-01T06:12:49;8.5;;;5.8;;
56271;SDS011;42177;48.914;18.160;2022-08-01T06:17:49;6.9;;;6.1;;
56271;SDS011;42177;48.914;18.160;2022-08-01T06:22:49;6.9;;;6.1;;
56271;SDS011;42177;48.914;18.160;2022-08-01T06:27:49;7.3;;;6;;
56271;SDS011;42177;48.914;18.160;2022-08-01T06:32:49;7.3;;;6;;
56271;SDS011;42177;48.914;18.160;2022-08-01T06:37:50;6.8;;;6.1;;
56271;SDS011;42177;48.914;18.160;2022-08-01T06:42:50;6.8;;;6.1;;
56271;SDS011;42177;48.914;18.160;2022-08-01T06:47:50;9.4;;;7.3;;
56271;SDS011;42177;48.914;18.160;2022-08-01T06:52:50;9.4;;;7.3;;
56271;SDS011;42177;48.914;18.160;2022-08-01T06:57:51;7.5;;;5.9;;
56271;SDS011;42177;48.914;18.160;2022-08-01T07:02:50;7.5;;;5.9;;
56271;SDS011;42177;48.914;18.160;2022-08-01T07:07:49;8.2;;;7.1;;
56271;SDS011;42177;48.914;18.160;2022-08-01T07:12:49;8.2;;;7.1;;
56271;SDS011;42177;48.914;18.160;2022-08-01T07:17:49;9.4;;;7.4;;
56271;SDS011;42177;48.914;18.160;2022-08-01T07:22:49;9.4;;;7.4;;
56271;SDS011;42177;48.914;18.160;2022-08-01T07:27:49;12.5;;;7.4;;
56271;SDS011;42177;48.914;18.160;2022-08-01T07:32:49;12.5;;;7.4;;
56271;SDS011;42177;48.914;18.160;2022-08-01T07:37:49;9.3;;;5.9;;
56271;SDS011;42177;48.914;18.160;2022-08-01T07:42:49;9.3;;;5.9;;
56271;SDS011;42177;48.914;18.160;2022-08-01T07:47:49;9.3;;;5.8;;
56271;SDS011;42177;48.914;18.160;2022-08-01T07:52:49;9.3;;;5.8;;
56271;SDS011;42177;48.914;18.160;2022-08-01T07:57:49;9.5;;;4.8;;
56271;SDS011;42177;48.914;18.160;2022-08-01T08:02:49;9.5;;;4.8;;
56271;SDS011;42177;48.914;18.160;2022-08-01T08:07:49;7.8;;;4.2;;
56271;SDS011;42177;48.914;18.160;2022-08-01T08:12:49;7.8;;;4.2;;
56271;SDS011;42177;48.914;18.160;2022-08-01T08:17:49;8;;;4.3;;
56271;SDS011;42177;48.914;18.160;2022-08-01T08:22:49;8;;;4.3;;
56271;SDS011;42177;48.914;18.160;2022-08-01T08:27:49;7.7;;;4.2;;
56271;SDS011;42177;48.914;18.160;2022-08-01T08:32:49;7.7;;;4.2;;
56271;SDS011;42177;48.914;18.160;2022-08-01T08:37:49;5.5;;;4;;
56271;SDS011;42177;48.914;18.160;2022-08-01T08:42:49;5.5;;;4;;
56271;SDS011;42177;48.914;18.160;2022-08-01T08:47:49;6.3;;;3.6;;
56271;SDS011;42177;48.914;18.160;2022-08-01T08:52:49;6.3;;;3.6;;
56271;SDS011;42177;48.914;18.160;2022-08-01T08:57:49;5.8;;;3.4;;
56271;SDS011;42177;48.914;18.160;2022-08-01T09:02:49;5.8;;;3.4;;
56271;SDS011;42177;48.914;18.160;2022-08-01T09:07:49;6.3;;;3.4;;
56271;SDS011;42177;48.914;18.160;2022-08-01T09:13:06;6.3;;;3.4;;
56271;SDS011;42177;48.914;18.160;2022-08-01T09:17:49;6;;;3.2;;
56271;SDS011;42177;48.914;18.160;2022-08-01T09:22:49;6;;;3.2;;
56271;SDS011;42177;48.914;18.160;2022-08-01T09:27:49;6.7;;;3.4;;
56271;SDS011;42177;48.914;18.160;2022-08-01T09:32:53;6.7;;;3.4;;
56271;SDS011;42177;48.914;18.160;2022-08-01T09:37:49;3.8;;;3.1;;
56271;SDS011;42177;48.914;18.160;2022-08-01T09:42:49;3.8;;;3.1;;
56271;SDS011;42177;48.914;18.160;2022-08-01T09:47:49;5.9;;;3.6;;
56271;SDS011;42177;48.914;18.160;2022-08-01T09:52:53;5.9;;;3.6;;
56271;SDS011;42177;48.914;18.160;2022-08-01T09:57:54;4.6;;;3.2;;
56271;SDS011;42177;48.914;18.160;2022-08-01T10:02:49;4.6;;;3.2;;
56271;SDS011;42177;48.914;18.160;2022-08-01T10:07:58;7.7;;;3.3;;
56271;SDS011;42177;48.914;18.160;2022-08-01T10:12:49;7.7;;;3.3;;
56271;SDS011;42177;48.914;18.160;2022-08-01T10:17:51;7.2;;;3.4;;
56271;SDS011;42177;48.914;18.160;2022-08-01T10:22:50;7.2;;;3.4;;
56271;SDS011;42177;48.914;18.160;2022-08-01T10:27:49;5.9;;;3.2;;
56271;SDS011;42177;48.914;18.160;2022-08-01T10:32:50;5.9;;;3.2;;
56271;SDS011;42177;48.914;18.160;2022-08-01T10:37:49;6.5;;;3.3;;
56271;SDS011;42177;48.914;18.160;2022-08-01T10:42:49;6.5;;;3.3;;
56271;SDS011;42177;48.914;18.160;2022-08-01T10:47:51;4.9;;;3.4;;
56271;SDS011;42177;48.914;18.160;2022-08-01T10:53:03;4.9;;;3.4;;
56271;SDS011;42177;48.914;18.160;2022-08-01T10:57:49;6.1;;;3.3;;
56271;SDS011;42177;48.914;18.160;2022-08-01T11:02:57;6.1;;;3.3;;
56271;SDS011;42177;48.914;18.160;2022-08-01T11:07:51;6.1;;;3.2;;
56271;SDS011;42177;48.914;18.160;2022-08-01T11:12:49;6.1;;;3.2;;
56271;SDS011;42177;48.914;18.160;2022-08-01T11:17:50;9.1;;;3.4;;
56271;SDS011;42177;48.914;18.160;2022-08-01T11:23:22;9.1;;;3.4;;
56271;SDS011;42177;48.914;18.160;2022-08-01T11:27:50;4.6;;;3;;
56271;SDS011;42177;48.914;18.160;2022-08-01T11:32:50;4.6;;;3;;
56271;SDS011;42177;48.914;18.160;2022-08-01T11:37:50;7.9;;;3.1;;
56271;SDS011;42177;48.914;18.160;2022-08-01T11:42:50;7.9;;;3.1;;
56271;SDS011;42177;48.914;18.160;2022-08-01T11:47:50;5.2;;;3.2;;
56271;SDS011;42177;48.914;18.160;2022-08-01T11:52:49;5.2;;;3.2;;
56271;SDS011;42177;48.914;18.160;2022-08-01T11:57:49;6.1;;;2.8;;
56271;SDS011;42177;48.914;18.160;2022-08-01T12:02:56;6.1;;;2.8;;
56271;SDS011;42177;48.914;18.160;2022-08-01T12:07:50;7.2;;;2.9;;
56271;SDS011;42177;48.914;18.160;2022-08-01T12:12:50;7.2;;;2.9;;
56271;SDS011;42177;48.914;18.160;2022-08-01T12:17:50;5.1;;;3.1;;
56271;SDS011;42177;48.914;18.160;2022-08-01T12:22:52;5.1;;;3.1;;
56271;SDS011;42177;48.914;18.160;2022-08-01T12:27:49;4.9;;;2.9;;
56271;SDS011;42177;48.914;18.160;2022-08-01T12:32:49;4.9;;;2.9;;
56271;SDS011;42177;48.914;18.160;2022-08-01T12:37:50;4.8;;;2.4;;
56271;SDS011;42177;48.914;18.160;2022-08-01T12:42:50;4.8;;;2.4;;
56271;SDS011;42177;48.914;18.160;2022-08-01T12:47:49;3.4;;;2.7;;
56271;SDS011;42177;48.914;18.160;2022-08-01T12:52:49;3.4;;;2.7;;
56271;SDS011;42177;48.914;18.160;2022-08-01T12:57:50;7;;;2.6;;
56271;SDS011;42177;48.914;18.160;2022-08-01T13:02:50;7;;;2.6;;
56271;SDS011;42177;48.914;18.160;2022-08-01T13:07:49;5.5;;;2.6;;
56271;SDS011;42177;48.914;18.160;2022-08-01T13:12:50;5.5;;;2.6;;
56271;SDS011;42177;48.914;18.160;2022-08-01T13:17:49;3.4;;;2.6;;
56271;SDS011;42177;48.914;18.160;2022-08-01T13:22:49;3.4;;;2.6;;
56271;SDS011;42177;48.914;18.160;2022-08-01T13:27:49;4.4;;;2.5;;
56271;SDS011;42177;48.914;18.160;2022-08-01T13:32:56;4.4;;;2.5;;
56271;SDS011;42177;48.914;18.160;2022-08-01T13:37:49;5.1;;;2.7;;
56271;SDS011;42177;48.914;18.160;2022-08-01T13:42:49;5.1;;;2.7;;
56271;SDS011;42177;48.914;18.160;2022-08-01T13:47:49;5;;;2.6;;
56271;SDS011;42177;48.914;18.160;2022-08-01T13:52:49;5;;;2.6;;
56271;SDS011;42177;48.914;18.160;2022-08-01T13:57:49;5.2;;;2.6;;
56271;SDS011;42177;48.914;18.160;2022-08-01T14:02:49;5.2;;;2.6;;
56271;SDS011;42177;48.914;18.160;2022-08-01T14:07:49;4.7;;;2.8;;
56271;SDS011;42177;48.914;18.160;2022-08-01T14:12:49;4.7;;;2.8;;
56271;SDS011;42177;48.914;18.160;2022-08-01T14:17:49;3.9;;;2.8;;
56271;SDS011;42177;48.914;18.160;2022-08-01T14:22:49;3.9;;;2.8;;
56271;SDS011;42177;48.914;18.160;2022-08-01T14:27:49;4.9;;;2.5;;
56271;SDS011;42177;48.914;18.160;2022-08-01T14:32:49;4.9;;;2.5;;
56271;SDS011;42177;48.914;18.160;2022-08-01T14:37:49;3.4;;;2.4;;
56271;SDS011;42177;48.914;18.160;2022-08-01T14:42:49;3.4;;;2.4;;
56271;SDS011;42177;48.914;18.160;2022-08-01T14:47:49;4.5;;;2.8;;
56271;SDS011;42177;48.914;18.160;2022-08-01T14:52:49;4.5;;;2.8;;
56271;SDS011;42177;48.914;18.160;2022-08-01T14:57:49;4;;;2.7;;
56271;SDS011;42177;48.914;18.160;2022-08-01T15:02:49;4;;;2.7;;
56271;SDS011;42177;48.914;18.160;2022-08-01T15:07:49;3.5;;;2.7;;
56271;SDS011;42177;48.914;18.160;2022-08-01T15:12:49;3.5;;;2.7;;
56271;SDS011;42177;48.914;18.160;2022-08-01T15:17:49;3.7;;;2.4;;
56271;SDS011;42177;48.914;18.160;2022-08-01T15:22:49;3.7;;;2.4;;
56271;SDS011;42177;48.914;18.160;2022-08-01T15:27:49;2.9;;;2.3;;
56271;SDS011;42177;48.914;18.160;2022-08-01T15:32:49;2.9;;;2.3;;
56271;SDS011;42177;48.914;18.160;2022-08-01T15:37:49;6.8;;;3.3;;
56271;SDS011;42177;48.914;18.160;2022-08-01T15:42:49;6.8;;;3.3;;
56271;SDS011;42177;48.914;18.160;2022-08-01T15:47:49;2.7;;;2.1;;
56271;SDS011;42177;48.914;18.160;2022-08-01T15:52:49;2.7;;;2.1;;
56271;SDS011;42177;48.914;18.160;2022-08-01T15:57:49;2.8;;;1.9;;
56271;SDS011;42177;48.914;18.160;2022-08-01T16:02:49;2.8;;;1.9;;
56271;SDS011;42177;48.914;18.160;2022-08-01T16:07:49;5.9;;;1.9;;
56271;SDS011;42177;48.914;18.160;2022-08-01T16:12:49;5.9;;;1.9;;
56271;SDS011;42177;48.914;18.160;2022-08-01T16:17:49;4.2;;;2;;
56271;SDS011;42177;48.914;18.160;2022-08-01T16:22:49;4.2;;;2;;
56271;SDS011;42177;48.914;18.160;2022-08-01T16:27:49;3.9;;;1.9;;
56271;SDS011;42177;48.914;18.160;2022-08-01T16:32:49;3.9;;;1.9;;
56271;SDS011;42177;48.914;18.160;2022-08-01T16:37:49;4.2;;;1.9;;
56271;SDS011;42177;48.914;18.160;2022-08-01T16:42:49;4.2;;;1.9;;
56271;SDS011;42177;48.914;18.160;2022-08-01T16:47:49;2.2;;;2;;
56271;SDS011;42177;48.914;18.160;2022-08-01T16:52:49;2.2;;;2;;
56271;SDS011;42177;48.914;18.160;2022-08-01T16:57:49;3.4;;;1.8;;
56271;SDS011;42177;48.914;18.160;2022-08-01T17:02:50;3.4;;;1.8;;
56271;SDS011;42177;48.914;18.160;2022-08-01T17:07:49;5.9;;;2.5;;
56271;SDS011;42177;48.914;18.160;2022-08-01T17:12:49;5.9;;;2.5;;
56271;SDS011;42177;48.914;18.160;2022-08-01T17:17:49;5.3;;;2.6;;
56271;SDS011;42177;48.914;18.160;2022-08-01T17:22:49;5.3;;;2.6;;
56271;SDS011;42177;48.914;18.160;2022-08-01T17:27:50;5.1;;;2.9;;
56271;SDS011;42177;48.914;18.160;2022-08-01T17:32:49;5.1;;;2.9;;
56271;SDS011;42177;48.914;18.160;2022-08-01T17:37:49;4.2;;;2.7;;
56271;SDS011;42177;48.914;18.160;2022-08-01T17:42:50;4.2;;;2.7;;
56271;SDS011;42177;48.914;18.160;2022-08-01T17:47:49;4.5;;;2.9;;
56271;SDS011;42177;48.914;18.160;2022-08-01T17:52:49;4.5;;;2.9;;
56271;SDS011;42177;48.914;18.160;2022-08-01T17:57:50;5.1;;;3.1;;
56271;SDS011;42177;48.914;18.160;2022-08-01T18:02:50;5.1;;;3.1;;
56271;SDS011;42177;48.914;18.160;2022-08-01T18:07:50;7.1;;;3.2;;
56271;SDS011;42177;48.914;18.160;2022-08-01T18:12:50;7.1;;;3.2;;
56271;SDS011;42177;48.914;18.160;2022-08-01T18:17:50;5.1;;;3.4;;
56271;SDS011;42177;48.914;18.160;2022-08-01T18:22:49;5.1;;;3.4;;
56271;SDS011;42177;48.914;18.160;2022-08-01T18:27:49;8.4;;;3.6;;
56271;SDS011;42177;48.914;18.160;2022-08-01T18:32:49;8.4;;;3.6;;
56271;SDS011;42177;48.914;18.160;2022-08-01T18:37:50;6.8;;;5;;
56271;SDS011;42177;48.914;18.160;2022-08-01T18:42:49;6.8;;;5;;
56271;SDS011;42177;48.914;18.160;2022-08-01T18:47:49;6.6;;;4.6;;
56271;SDS011;42177;48.914;18.160;2022-08-01T18:52:49;6.6;;;4.6;;
56271;SDS011;42177;48.914;18.160;2022-08-01T18:57:49;6.9;;;4.3;;
56271;SDS011;42177;48.914;18.160;2022-08-01T19:02:49;6.9;;;4.3;;
56271;SDS011;42177;48.914;18.160;2022-08-01T19:07:49;12.3;;;4.4;;
56271;SDS011;42177;48.914;18.160;2022-08-01T19:12:49;12.3;;;4.4;;
56271;SDS011;42177;48.914;18.160;2022-08-01T19:17:49;7.8;;;4.6;;
56271;SDS011;42177;48.914;18.160;2022-08-01T19:22:49;7.8;;;4.6;;
56271;SDS011;42177;48.914;18.160;2022-08-01T19:27:50;6.2;;;4.4;;
56271;SDS011;42177;48.914;18.160;2022-08-01T19:32:50;6.2;;;4.4;;
56271;SDS011;42177;48.914;18.160;2022-08-01T19:37:50;7.1;;;4.5;;
56271;SDS011;42177;48.914;18.160;2022-08-01T19:42:50;7.1;;;4.5;;
56271;SDS011;42177;48.914;18.160;2022-08-01T19:47:50;5.4;;;4.7;;
56271;SDS011;42177;48.914;18.160;2022-08-01T19:52:50;5.4;;;4.7;;
56271;SDS011;42177;48.914;18.160;2022-08-01T19:57:51;5.5;;;4.6;;
56271;SDS011;42177;48.914;18.160;2022-08-01T20:02:49;5.5;;;4.6;;
56271;SDS011;42177;48.914;18.160;2022-08-01T20:07:50;6.9;;;5;;
56271;SDS011;42177;48.914;18.160;2022-08-01T20:12:50;6.9;;;5;;
56271;SDS011;42177;48.914;18.160;2022-08-01T20:17:49;9.3;;;4.8;;
56271;SDS011;42177;48.914;18.160;2022-08-01T20:22:50;9.3;;;4.8;;
56271;SDS011;42177;48.914;18.160;2022-08-01T20:27:49;9.9;;;5;;
56271;SDS011;42177;48.914;18.160;2022-08-01T20:32:50;9.9;;;5;;
56271;SDS011;42177;48.914;18.160;2022-08-01T20:37:49;6.7;;;4.6;;
56271;SDS011;42177;48.914;18.160;2022-08-01T20:42:49;6.7;;;4.6;;
56271;SDS011;42177;48.914;18.160;2022-08-01T20:47:49;7.1;;;5;;
56271;SDS011;42177;48.914;18.160;2022-08-01T20:52:50;7.1;;;5;;
56271;SDS011;42177;48.914;18.160;2022-08-01T20:57:49;7.1;;;5.4;;
56271;SDS011;42177;48.914;18.160;2022-08-01T21:02:53;7.1;;;5.4;;
56271;SDS011;42177;48.914;18.160;2022-08-01T21:07:50;6.4;;;4.8;;
56271;SDS011;42177;48.914;18.160;2022-08-01T21:12:59;6.4;;;4.8;;
56271;SDS011;42177;48.914;18.160;2022-08-01T21:17:51;6.3;;;5.4;;
56271;SDS011;42177;48.914;18.160;2022-08-01T21:22:51;6.3;;;5.4;;
56271;SDS011;42177;48.914;18.160;2022-08-01T21:27:50;8.3;;;5.3;;
56271;SDS011;42177;48.914;18.160;2022-08-01T21:32:50;8.3;;;5.3;;
56271;SDS011;42177;48.914;18.160;2022-08-01T21:37:50;8.1;;;5.4;;
56271;SDS011;42177;48.914;18.160;2022-08-01T21:42:50;8.1;;;5.4;;
56271;SDS011;42177;48.914;18.160;2022-08-01T21:47:50;7.7;;;5.1;;
56271;SDS011;42177;48.914;18.160;2022-08-01T21:52:52;7.7;;;5.1;;
56271;SDS011;42177;48.914;18.160;2022-08-01T21:57:54;5.8;;;5;;
56271;SDS011;42177;48.914;18.160;2022-08-01T22:02:52;5.8;;;5;;
56271;SDS011;42177;48.914;18.160;2022-08-01T22:07:51;9.2;;;4.9;;
56271;SDS011;42177;48.914;18.160;2022-08-01T22:12:50;9.2;;;4.9;;
56271;SDS011;42177;48.914;18.160;2022-08-01T22:17:50;7.9;;;4.6;;
56271;SDS011;42177;48.914;18.160;2022-08-01T22:22:50;7.9;;;4.6;;
56271;SDS011;42177;48.914;18.160;2022-08-01T22:27:50;7.9;;;4.7;;
56271;SDS011;42177;48.914;18.160;2022-08-01T22:32:50;7.9;;;4.7;;
56271;SDS011;42177;48.914;18.160;2022-08-01T22:37:49;7.4;;;5;;
56271;SDS011;42177;48.914;18.160;2022-08-01T22:42:50;7.4;;;5;;
56271;SDS011;42177;48.914;18.160;2022-08-01T22:47:53;11.3;;;5.8;;
56271;SDS011;42177;48.914;18.160;2022-08-01T22:52:53;11.3;;;5.8;;
56271;SDS011;42177;48.914;18.160;2022-08-01T22:57:50;9;;;6;;
56271;SDS011;42177;48.914;18.160;2022-08-01T23:02:52;9;;;6;;
56271;SDS011;42177;48.914;18.160;2022-08-01T23:07:50;8.9;;;5.5;;
56271;SDS011;42177;48.914;18.160;2022-08-01T23:12:50;8.9;;;5.5;;
56271;SDS011;42177;48.914;18.160;2022-08-01T23:17:50;7;;;5.4;;
56271;SDS011;42177;48.914;18.160;2022-08-01T23:22:50;7;;;5.4;;
56271;SDS011;42177;48.914;18.160;2022-08-01T23:27:49;8.4;;;5.6;;
56271;SDS011;42177;48.914;18.160;2022-08-01T23:32:50;8.4;;;5.6;;
56271;SDS011;42177;48.914;18.160;2022-08-01T23:37:50;6.6;;;5.8;;
56271;SDS011;42177;48.914;18.160;2022-08-01T23:42:50;6.6;;;5.8;;
56271;SDS011;42177;48.914;18.160;2022-08-01T23:47:50;10.3;;;5.9;;
56271;SDS011;42177;48.914;18.160;2022-08-01T23:52:50;10.3;;;5.9;;
56271;SDS011;42177;48.914;18.160;2022-08-01T23:57:49;7.9;;;5.4;;
